Bookmark and Share
Track history (hours):
 

Toward

Last reported at 2014-Apr-17 14:32 UTC. Time now 2014-Apr-19 02:07 UTC.
Position N 56°03' W 004°49'.

Length 14 m.

Type: Pilot. MMSI: 232003652.

NotesDate/timePositionNaut miles runAvg speedWind from/ knotsBaromVisibWave heightAir tempDewpointWater temp
2014-Apr-17 14:32N 56°03' W 004°49'5 4.8
2014-Apr-17 13:33N 55°59' W 004°49'5 4.0
2014-Apr-17 12:24N 56°03' W 004°49'0 0.0
2014-Apr-17 11:30N 56°03' W 004°49'5 4.8
2014-Apr-17 10:33N 55°59' W 004°46'5 4.4
2014-Apr-17 09:31N 56°03' W 004°49'0 0.0
2014-Apr-17 08:21N 56°03' W 004°49'5 0.2
2014-Apr-16 10:33N 55°58' W 004°46'1 0.7
2014-Apr-16 09:08N 55°57' W 004°46'610.2
2014-Apr-16 08:33N 56°03' W 004°49'4 0.2
2014-Apr-15 10:34N 55°60' W 004°45'4 4.2
2014-Apr-15 09:33N 56°03' W 004°49'0 0.2
2014-Apr-15 08:34N 56°03' W 004°49'0 0.1
2014-Apr-15 06:30N 56°03' W 004°49'0 0.0
2014-Apr-15 05:30N 56°03' W 004°49'0 0.0
2014-Apr-14 19:33N 56°03' W 004°49'0 0.0
2014-Apr-14 18:33N 56°03' W 004°49'0 0.0
2014-Apr-14 16:33N 56°03' W 004°49'0 0.0
2014-Apr-14 15:33N 56°03' W 004°49'0 0.0
2014-Apr-14 14:33N 56°03' W 004°49'0 0.0
2014-Apr-14 13:33N 56°03' W 004°49'0 0.0
2014-Apr-14 09:32N 56°03' W 004°49'0 0.2
2014-Apr-14 08:33N 56°03' W 004°49'0 0.2
2014-Apr-14 07:32N 56°03' W 004°49'0 0.0
2014-Apr-14 06:32N 56°03' W 004°49'0 0.0
2014-Apr-13 22:29N 56°03' W 004°49'0 0.0
2014-Apr-13 21:32N 56°03' W 004°49'0 0.0
2014-Apr-13 20:32N 56°03' W 004°49'0 0.0
2014-Apr-13 19:32N 56°03' W 004°49'0 0.0
2014-Apr-13 18:26N 56°03' W 004°49'0 0.0
2014-Apr-13 17:32N 56°03' W 004°49'0 0.0
2014-Apr-13 16:32N 56°03' W 004°49'0 0.0
2014-Apr-13 15:32N 56°03' W 004°49'0 0.0
2014-Apr-13 14:26N 56°03' W 004°49'0 0.0
2014-Apr-13 13:32N 56°03' W 004°49'0 0.0
2014-Apr-13 12:32N 56°03' W 004°49'0 0.0
2014-Apr-13 11:26N 56°03' W 004°49'0 0.0
2014-Apr-13 10:32N 56°03' W 004°49'0 0.0
2014-Apr-13 09:32N 56°03' W 004°49'0 0.0
2014-Apr-13 08:32N 56°03' W 004°49'0 0.0
2014-Apr-13 07:32N 56°03' W 004°49'0 0.0
2014-Apr-12 13:21N 56°03' W 004°49'5 6.0
2014-Apr-12 12:33N 55°58' W 004°50'3 2.4
2014-Apr-12 11:28N 55°60' W 004°46'4 4.1
2014-Apr-12 10:33N 56°03' W 004°49'0 0.0
2014-Apr-11 11:32N 56°03' W 004°49'7 6.6
2014-Apr-11 10:26N 55°57' W 004°44'0 0.0
2014-Apr-11 09:23N 55°57' W 004°44'0 0.0
2014-Apr-11 08:32N 55°57' W 004°44'7 0.4
2014-Apr-10 14:22N 56°03' W 004°49'0 0.0
2014-Apr-10 13:31N 56°03' W 004°49'1 1.4
2014-Apr-10 12:32N 56°02' W 004°48'1 1.4
2014-Apr-10 11:33N 56°03' W 004°49'0 0.0
2014-Apr-10 10:30N 56°03' W 004°49'0 0.0
2014-Apr-10 09:33N 56°03' W 004°49'0 0.0
2014-Apr-10 08:30N 56°03' W 004°49'1 0.8
2014-Apr-10 07:33N 56°03' W 004°49'1 0.0
2014-Apr-09 14:33N 56°03' W 004°49'6 6.0
2014-Apr-09 13:33N 55°57' W 004°46'0 0.0
2014-Apr-09 12:27N 55°57' W 004°46'0 0.0
2014-Apr-09 11:33N 55°57' W 004°46'0 0.0
2014-Apr-09 10:27N 55°57' W 004°46'0 0.0
2014-Apr-09 09:33N 55°57' W 004°46'0 0.0
2014-Apr-09 08:33N 55°57' W 004°46'6 0.4
2014-Apr-08 16:33N 56°03' W 004°49'2 2.2
2014-Apr-08 15:33N 56°01' W 004°48'3 2.5
2014-Apr-08 14:33N 55°59' W 004°46'4 3.6
2014-Apr-08 13:31N 56°02' W 004°49'1 1.1
2014-Apr-08 12:28N 56°03' W 004°49'0 0.0
2014-Apr-08 11:31N 56°03' W 004°49'0 0.0
2014-Apr-08 10:22N 56°03' W 004°49'0 0.0
2014-Apr-08 09:33N 56°03' W 004°49'1 0.6
2014-Apr-08 08:33N 56°03' W 004°50'1 0.5
2014-Apr-08 07:25N 56°03' W 004°49'  

Dump ship's entire track history

sailing weather and tide predictions

Toward — MTTR3 — position and weather